Ted Stevens Anchorage International Airport Anchorage US
ICAO: PANC
IATA: ANC
Category: Large
Scheduled Services:

Elevation: 152 ft
TransAlt. 18000 ft.

Airport Communications:
APP/DEP:119.1
APP/DEP:123.8
ATIS:118.4
TWEB:114.3
CLNC DEL:119.4
KENAI RDO:122.2
GND:121.9
SAN FRANCISCO ARINC:1133
CAMPER:140.15
KENAI RDO:122.55
TWR:118.3
UNICOM:122.95

PANC Zoom In..

Runways:

(A) RW 07L length 10600 ft width 150 ft
ILS 109.90 / hdg 71

(B) RW 07R length 12400 ft width 200 ft
ILS 111.30 / hdg 71

(C) RW 15 length 11584 ft width 150 ft
ILS 111.75 / hdg 146

(D) RW 25L length 12400 ft width 200 ft
---- / hdg 251

(E) RW 25R length 10600 ft width 150 ft
---- / hdg 251

(F) RW 33 length 11584 ft width 150 ft
---- / hdg 326

Location; PANC
Day. 23 / Time. 15.19 Zulu
* Altimeter: 29.81
* Temperature: -09° c. -15.8°f.
* Wind from: 360° Speed 07 kn.
Dewpoint: -12° c.
Visibility: 3/4 Statute Miles.
Clouds: Overcast 2700 ft.
Conditions: Light Snow.Conditions: Mist.

PANC 231519Z 36007KT 3/4SM R07R/P6000FT -SN BR OVC027 M09/M12 A2981 RMK AO2 TWR VIS 1 P0000 T10941117 $


Wind From 360°
Speed 07 kn.

YouTube Music Video
 
jpsmedia.com for Web Design  worldairports.se 2018   terms of use